Time;durP1;ratioP1;P1;durP2;ratioP2;P2;SDS_P1;SDS_P2;PMS_P1;PMS_P2;Temp;Humidity;BMP_temperature;BMP_pressure;BME280_temperature;BME280_humidity;BME280_pressure;Samples;Min_cycle;Max_cycle;Signal;HPM_P1;HPM_P2
2022/08/23 00:02:26;;;;;;;3.00;2.70;;;23.20;71.30;;;;;;5116434;27;20280;-68
2022/08/23 00:04:53;;;;;;;5.90;2.87;;;23.20;71.00;;;;;;5109427;27;20236;-68
2022/08/23 00:07:35;;;;;;;8.20;2.80;;;23.30;71.10;;;;;;5104958;27;20193;-68
2022/08/23 00:10:06;;;;;;;3.80;2.90;;;23.30;71.20;;;;;;5120222;27;20630;-68
2022/08/23 00:12:34;;;;;;;6.33;2.93;;;23.30;71.10;;;;;;5114780;27;20188;-68
2022/08/23 00:15:01;;;;;;;3.33;2.53;;;23.30;71.50;;;;;;5105324;27;20209;-68
2022/08/23 00:17:28;;;;;;;3.80;3.00;;;23.30;71.90;;;;;;5117806;27;20269;-68
2022/08/23 00:20:06;;;;;;;3.07;2.57;;;23.30;72.10;;;;;;5120711;27;20276;-68
2022/08/23 00:22:35;;;;;;;3.87;2.60;;;23.20;71.90;;;;;;5101823;27;20261;-68
2022/08/23 00:25:04;;;;;;;3.50;3.00;;;23.20;72.00;;;;;;5110857;27;20204;-68
2022/08/23 00:27:32;;;;;;;4.30;2.77;;;23.20;72.20;;;;;;5086506;27;20213;-68
2022/08/23 00:30:00;;;;;;;4.33;2.70;;;23.10;72.50;;;;;;5096746;27;20663;-68
2022/08/23 00:32:30;;;;;;;3.57;3.27;;;23.00;72.80;;;;;;5114884;27;20203;-68
2022/08/23 00:34:58;;;;;;;4.60;2.60;;;23.00;73.10;;;;;;5085983;27;20209;-68
2022/08/23 00:37:27;;;;;;;6.00;3.20;;;22.90;73.20;;;;;;5090427;27;20243;-68
2022/08/23 00:39:54;;;;;;;4.23;2.90;;;22.90;73.20;;;;;;5122205;27;20700;-68
2022/08/23 00:48:06;;;;;;;5.17;3.20;;;22.80;73.50;;;;;;5123913;27;20203;-68
2022/08/23 00:50:48;;;;;;;5.20;2.80;;;22.70;73.50;;;;;;5095248;28;20224;-68
2022/08/23 00:53:23;;;;;;;3.97;3.13;;;22.70;73.60;;;;;;5110253;27;20196;-68
2022/08/23 00:55:56;;;;;;;6.40;3.53;;;22.70;73.70;;;;;;5100520;28;20262;-68
2022/08/23 00:58:23;;;;;;;6.13;3.73;;;22.60;73.80;;;;;;5114550;27;20516;-68
2022/08/23 01:00:54;;;;;;;4.37;3.80;;;22.60;74.10;;;;;;5100820;27;20200;-68
2022/08/23 01:03:23;;;;;;;11.03;4.30;;;22.50;74.30;;;;;;5113916;27;20215;-68
2022/08/23 01:06:22;;;;;;;4.50;4.10;;;22.50;74.50;;;;;;5093936;27;20200;-68
2022/08/23 01:08:54;;;;;;;6.47;4.37;;;22.40;74.70;;;;;;5102606;27;20212;-68
2022/08/23 01:11:41;;;;;;;5.83;4.27;;;22.40;74.90;;;;;;5108211;27;20533;-68
2022/08/23 01:14:17;;;;;;;5.60;4.07;;;22.40;75.00;;;;;;5102036;27;20201;-68
2022/08/23 01:16:56;;;;;;;6.17;4.50;;;22.40;75.00;;;;;;5099495;27;20828;-68
2022/08/23 01:19:38;;;;;;;4.97;3.67;;;22.30;74.80;;;;;;5113303;27;20641;-68
2022/08/23 01:22:20;;;;;;;3.40;3.10;;;22.30;74.70;;;;;;5089048;27;20204;-69
2022/08/23 01:24:48;;;;;;;7.53;3.57;;;22.20;75.00;;;;;;5092255;27;20214;-68
2022/08/23 01:27:38;;;;;;;7.67;3.43;;;22.10;75.10;;;;;;5090209;27;20221;-68
2022/08/23 01:30:09;;;;;;;5.17;3.87;;;22.00;75.40;;;;;;5105398;27;20555;-68
2022/08/23 01:32:46;;;;;;;4.07;3.73;;;22.00;75.90;;;;;;5115242;27;20228;-68
2022/08/23 01:35:15;;;;;;;4.00;3.33;;;22.00;76.10;;;;;;5107779;27;20513;-68
2022/08/23 01:37:44;;;;;;;4.00;3.60;;;22.00;76.10;;;;;;5099125;27;20231;-69
2022/08/23 01:40:12;;;;;;;4.17;3.40;;;22.00;76.20;;;;;;5093838;27;20291;-68
2022/08/23 01:42:40;;;;;;;5.00;3.50;;;22.00;76.50;;;;;;5089322;27;20216;-68
2022/08/23 01:45:13;;;;;;;6.07;3.90;;;21.90;76.70;;;;;;5096804;28;20310;-68
2022/08/23 01:47:41;;;;;;;4.57;4.00;;;21.90;76.90;;;;;;5089048;27;20811;-68
2022/08/23 01:50:10;;;;;;;5.23;4.07;;;21.90;76.80;;;;;;5108775;27;20227;-68
2022/08/23 01:52:38;;;;;;;5.93;3.73;;;21.90;76.70;;;;;;5099901;27;20197;-68
2022/08/23 01:55:14;;;;;;;5.63;3.60;;;21.80;76.70;;;;;;5094962;28;20296;-68
2022/08/23 01:57:44;;;;;;;5.50;3.83;;;21.80;77.10;;;;;;5090933;28;20287;-68
2022/08/23 02:00:16;;;;;;;6.67;3.70;;;21.70;77.50;;;;;;5103772;27;20249;-68
2022/08/23 02:02:45;;;;;;;7.17;4.33;;;21.70;77.90;;;;;;5078008;27;20236;-69
2022/08/23 02:05:13;;;;;;;4.73;4.10;;;21.70;78.10;;;;;;5092568;27;20203;-68
2022/08/23 02:07:46;;;;;;;4.27;3.87;;;21.70;78.10;;;;;;5077148;28;20242;-68
2022/08/23 02:10:16;;;;;;;4.27;3.87;;;21.70;77.70;;;;;;5105069;27;20219;-68
2022/08/23 02:12:43;;;;;;;6.07;3.80;;;21.70;77.70;;;;;;5105532;27;20211;-68
2022/08/23 02:15:14;;;;;;;7.27;4.37;;;21.70;77.80;;;;;;5084344;28;20208;-68
2022/08/23 02:17:43;;;;;;;5.03;4.53;;;21.60;77.90;;;;;;5068403;28;20230;-69
2022/08/23 02:20:11;;;;;;;5.50;4.43;;;21.60;78.00;;;;;;5061581;28;20210;-69
2022/08/23 02:22:38;;;;;;;5.40;3.70;;;21.60;78.10;;;;;;5091773;28;20202;-68
2022/08/23 02:25:06;;;;;;;6.63;4.27;;;21.60;78.50;;;;;;5083838;28;20202;-68
2022/08/23 02:27:34;;;;;;;5.17;4.27;;;21.60;78.80;;;;;;5069859;28;20197;-68
2022/08/23 02:30:01;;;;;;;5.57;4.67;;;21.60;79.00;;;;;;5087153;28;20317;-68
2022/08/23 02:32:29;;;;;;;4.80;4.30;;;21.60;79.10;;;;;;5071224;28;20541;-68
2022/08/23 02:34:56;;;;;;;6.73;4.17;;;21.50;79.40;;;;;;5070965;28;20659;-69
2022/08/23 02:37:34;;;;;;;4.63;4.23;;;21.50;79.50;;;;;;5086796;28;20206;-68
2022/08/23 02:40:03;;;;;;;6.03;3.73;;;21.50;79.30;;;;;;5069832;28;20252;-68
2022/08/23 02:42:31;;;;;;;4.60;4.20;;;21.50;79.10;;;;;;5061418;28;20210;-68
2022/08/23 02:44:59;;;;;;;5.47;3.63;;;21.50;78.90;;;;;;5075405;28;20206;-68
2022/08/23 02:47:26;;;;;;;4.13;3.80;;;21.50;79.00;;;;;;5072905;28;20567;-69
2022/08/23 02:50:07;;;;;;;5.80;4.37;;;21.50;79.10;;;;;;5075048;28;20226;-68
2022/08/23 02:52:35;;;;;;;4.83;3.80;;;21.50;78.90;;;;;;5083254;28;20200;-68
2022/08/23 02:55:03;;;;;;;4.03;3.73;;;21.40;78.90;;;;;;5079123;28;20209;-68
2022/08/23 02:57:30;;;;;;;3.67;3.33;;;21.40;79.00;;;;;;5079572;28;20198;-68
2022/08/23 03:00:00;;;;;;;3.67;3.37;;;21.40;79.20;;;;;;5071650;28;20594;-68
2022/08/23 03:02:29;;;;;;;5.30;3.67;;;21.30;79.50;;;;;;5062946;28;20213;-68
2022/08/23 03:04:57;;;;;;;9.00;3.90;;;21.30;79.70;;;;;;5069389;28;20607;-68
2022/08/23 03:07:24;;;;;;;5.97;3.87;;;21.30;79.70;;;;;;5076994;28;20216;-68
2022/08/23 03:09:51;;;;;;;6.10;4.13;;;21.30;79.80;;;;;;5078275;28;20222;-68
2022/08/23 03:12:19;;;;;;;4.93;3.90;;;21.30;79.80;;;;;;5071485;28;20313;-68
2022/08/23 03:14:52;;;;;;;4.20;3.80;;;21.30;79.70;;;;;;5076579;28;20209;-68
2022/08/23 03:17:19;;;;;;;5.10;3.30;;;21.20;79.80;;;;;;5070926;28;20685;-68
2022/08/23 03:19:47;;;;;;;4.00;3.70;;;21.20;79.70;;;;;;5077763;28;20220;-68
2022/08/23 03:22:14;;;;;;;5.93;3.80;;;21.20;79.80;;;;;;5071860;28;20221;-68
2022/08/23 03:24:41;;;;;;;4.50;4.10;;;21.20;79.80;;;;;;5077512;28;20259;-68
2022/08/23 03:27:09;;;;;;;4.40;3.60;;;21.20;79.80;;;;;;5080308;28;20234;-68
2022/08/23 03:29:39;;;;;;;3.80;3.50;;;21.20;79.90;;;;;;5077700;28;20206;-69
2022/08/23 03:32:06;;;;;;;5.03;3.40;;;21.20;80.00;;;;;;5081869;28;20223;-69
2022/08/23 03:34:37;;;;;;;4.53;3.53;;;21.20;80.10;;;;;;5093373;28;20233;-68
2022/08/23 03:37:06;;;;;;;4.00;3.53;;;21.20;80.20;;;;;;5080477;28;20210;-68
2022/08/23 03:39:34;;;;;;;4.53;4.10;;;21.20;80.30;;;;;;5082291;28;20239;-68
2022/08/23 03:42:02;;;;;;;7.33;3.57;;;21.20;80.30;;;;;;5077853;28;20236;-68
2022/08/23 03:44:32;;;;;;;3.73;3.43;;;21.20;80.30;;;;;;5075814;28;20205;-68
2022/08/23 03:47:01;;;;;;;5.53;4.37;;;21.10;80.20;;;;;;5076859;28;20215;-68
2022/08/23 03:49:28;;;;;;;3.80;3.50;;;21.10;80.40;;;;;;5073848;28;20292;-69
2022/08/23 03:51:57;;;;;;;5.07;4.23;;;21.10;80.40;;;;;;5086559;28;20233;-68
2022/08/23 03:54:24;;;;;;;4.10;3.60;;;21.10;80.40;;;;;;5084981;28;20688;-68
2022/08/23 03:56:59;;;;;;;4.17;3.77;;;21.10;80.50;;;;;;5085117;28;20240;-68
2022/08/23 03:59:31;;;;;;;9.47;3.87;;;21.10;80.60;;;;;;5078786;28;20259;-68
2022/08/23 04:01:59;;;;;;;3.87;3.47;;;21.00;80.50;;;;;;5078744;28;20597;-68
2022/08/23 04:04:28;;;;;;;5.50;3.67;;;21.00;80.40;;;;;;5070959;28;20211;-68
2022/08/23 04:07:19;;;;;;;5.40;4.03;;;21.00;80.50;;;;;;5065502;28;20215;-68
2022/08/23 04:09:48;;;;;;;4.57;3.73;;;20.90;80.70;;;;;;5067175;28;20208;-69
2022/08/23 04:12:22;;;;;;;4.10;3.80;;;20.90;80.90;;;;;;5084438;28;20215;-68
2022/08/23 04:14:49;;;;;;;5.57;4.40;;;20.90;81.20;;;;;;5077269;28;20216;-68
2022/08/23 04:17:19;;;;;;;3.87;3.47;;;20.80;81.30;;;;;;5081614;28;20237;-68
2022/08/23 04:19:48;;;;;;;4.17;3.77;;;20.80;81.30;;;;;;5097715;28;20212;-68
2022/08/23 04:22:17;;;;;;;5.40;4.30;;;20.80;81.50;;;;;;5082219;28;20200;-68
2022/08/23 04:24:45;;;;;;;5.03;4.53;;;20.80;81.60;;;;;;5104883;28;20212;-68
2022/08/23 04:27:13;;;;;;;6.10;4.47;;;20.70;81.70;;;;;;5089923;28;20230;-68
2022/08/23 04:29:41;;;;;;;4.97;4.57;;;20.70;82.00;;;;;;5097234;28;20791;-68
2022/08/23 04:32:10;;;;;;;5.83;4.97;;;20.70;81.90;;;;;;5086513;28;20284;-68
2022/08/23 04:34:41;;;;;;;5.87;4.70;;;20.70;81.90;;;;;;5097198;28;20646;-68
2022/08/23 04:37:12;;;;;;;8.00;5.23;;;20.70;82.00;;;;;;5110531;27;20298;-68
2022/08/23 04:42:32;;;;;;;7.90;4.87;;;20.70;82.10;;;;;;5118678;27;20265;-68
2022/08/23 04:45:00;;;;;;;5.87;5.17;;;20.70;82.00;;;;;;5084151;28;20272;-68
2022/08/23 04:47:27;;;;;;;6.47;5.27;;;20.70;82.30;;;;;;5117288;27;20220;-68
2022/08/23 04:49:57;;;;;;;6.17;5.20;;;20.70;82.50;;;;;;5103015;28;20276;-68
2022/08/23 04:52:24;;;;;;;10.53;5.73;;;20.70;82.60;;;;;;5096085;28;20219;-68
2022/08/23 04:54:51;;;;;;;6.33;5.00;;;20.70;82.70;;;;;;5083405;28;20304;-69
2022/08/23 04:57:41;;;;;;;6.10;5.50;;;20.70;82.70;;;;;;5098226;28;20227;-68
2022/08/23 05:00:12;;;;;;;5.67;5.17;;;20.70;83.40;;;;;;5115964;27;20695;-68
2022/08/23 05:02:47;;;;;;;7.10;5.40;;;20.70;82.80;;;;;;5099114;28;20648;-68
2022/08/23 05:05:15;;;;;;;8.50;6.07;;;20.80;82.90;;;;;;5082340;28;20274;-68
2022/08/23 05:07:44;;;;;;;7.13;4.83;;;20.80;82.70;;;;;;5095880;28;20582;-68
2022/08/23 05:10:14;;;;;;;5.63;4.93;;;20.80;82.70;;;;;;5087062;28;20212;-68
2022/08/23 05:12:47;;;;;;;6.83;4.80;;;20.80;82.50;;;;;;5075867;28;20550;-68
2022/08/23 05:15:15;;;;;;;7.07;4.73;;;20.80;82.60;;;;;;5096190;28;20300;-68
2022/08/23 05:17:46;;;;;;;6.73;4.43;;;20.90;82.60;;;;;;5092753;28;20563;-68
2022/08/23 05:20:13;;;;;;;5.87;4.63;;;20.90;82.60;;;;;;5094766;28;20213;-68
2022/08/23 05:22:42;;;;;;;6.77;4.37;;;21.00;82.30;;;;;;5098335;28;20215;-68
2022/08/23 05:25:21;;;;;;;8.57;4.60;;;21.10;82.10;;;;;;5104134;28;20633;-68
2022/08/23 05:27:55;;;;;;;6.43;3.83;;;21.20;81.90;;;;;;5094667;28;20688;-68
2022/08/23 05:30:22;;;;;;;7.17;3.50;;;21.30;81.60;;;;;;5100030;28;20274;-68
2022/08/23 05:32:49;;;;;;;4.23;3.37;;;21.50;81.20;;;;;;5098602;28;20311;-68
2022/08/23 05:35:16;;;;;;;4.63;3.00;;;21.60;80.80;;;;;;5079185;28;20200;-68
2022/08/23 05:37:45;;;;;;;9.77;3.03;;;21.70;80.40;;;;;;5085679;28;20295;-68
2022/08/23 05:40:13;;;;;;;5.30;3.00;;;21.90;80.00;;;;;;5089347;28;20535;-68
2022/08/23 05:42:54;;;;;;;3.23;2.80;;;22.00;79.40;;;;;;5099190;28;20216;-68
2022/08/23 05:45:21;;;;;;;4.03;3.10;;;22.20;79.10;;;;;;5080051;28;20233;-68
2022/08/23 05:47:49;;;;;;;6.67;3.53;;;22.30;78.70;;;;;;5080342;28;20212;-68
2022/08/23 05:50:27;;;;;;;8.17;3.60;;;22.40;78.40;;;;;;5092150;28;20290;-68
2022/08/23 05:52:54;;;;;;;4.90;3.57;;;22.60;78.00;;;;;;5101336;28;20291;-69
2022/08/23 05:55:21;;;;;;;9.37;4.47;;;22.70;77.30;;;;;;5100183;28;20208;-68
2022/08/23 05:58:14;;;;;;;5.77;3.63;;;22.80;76.40;;;;;;5088932;28;20244;-68
2022/08/23 06:00:42;;;;;;;7.10;4.23;;;23.00;75.70;;;;;;5089439;28;20225;-68
2022/08/23 06:03:09;;;;;;;9.03;3.70;;;23.10;75.00;;;;;;5095443;28;20205;-68
2022/08/23 06:05:40;;;;;;;4.20;3.80;;;23.30;74.60;;;;;;5096478;28;20208;-68
2022/08/23 06:08:09;;;;;;;4.40;3.90;;;23.40;74.00;;;;;;5093399;28;20214;-68
2022/08/23 06:10:36;;;;;;;4.43;4.03;;;23.60;73.60;;;;;;5100924;28;20221;-68
2022/08/23 06:13:26;;;;;;;6.53;4.27;;;23.70;73.20;;;;;;5109266;27;20213;-68
2022/08/23 06:15:56;;;;;;;4.73;4.27;;;23.80;72.60;;;;;;5082769;28;20201;-68
2022/08/23 06:18:25;;;;;;;5.00;4.43;;;24.00;72.20;;;;;;5096594;28;20669;-68
2022/08/23 06:21:01;;;;;;;6.97;4.37;;;24.20;71.60;;;;;;5101847;28;20200;-67
2022/08/23 06:23:41;;;;;;;6.30;4.47;;;24.40;70.80;;;;;;5089614;28;20659;-68
2022/08/23 06:26:24;;;;;;;7.03;5.90;;;24.70;70.00;;;;;;5097370;28;20240;-68
2022/08/23 06:28:55;;;;;;;6.53;5.40;;;24.80;69.60;;;;;;5095280;28;20266;-68
2022/08/23 06:34:23;;;;;;;7.57;6.03;;;24.90;67.80;;;;;;5113839;27;20205;-68
2022/08/23 06:37:11;;;;;;;9.93;8.90;;;24.90;67.50;;;;;;5090864;28;20215;-68
2022/08/23 06:40:05;;;;;;;11.23;8.90;;;25.00;67.50;;;;;;5096104;27;20212;-67
2022/08/23 06:42:58;;;;;;;9.50;7.77;;;25.00;67.20;;;;;;5071725;28;20521;-68
2022/08/23 06:45:36;;;;;;;10.30;8.87;;;25.00;67.60;;;;;;5087265;28;20196;-68
2022/08/23 06:48:06;;;;;;;10.07;9.03;;;25.10;67.80;;;;;;5091513;28;20218;-68
2022/08/23 06:50:33;;;;;;;11.90;8.43;;;25.20;67.50;;;;;;5080706;28;20207;-68
2022/08/23 06:53:18;;;;;;;9.80;8.70;;;25.30;67.50;;;;;;5104637;28;20231;-68
2022/08/23 06:55:56;;;;;;;10.77;9.67;;;25.50;67.40;;;;;;5100658;28;20232;-68
2022/08/23 06:58:33;;;;;;;12.13;8.40;;;25.60;66.80;;;;;;5098566;28;20244;-68
2022/08/23 07:01:22;;;;;;;11.73;8.80;;;25.80;66.80;;;;;;5091900;28;20215;-68
2022/08/23 07:04:38;;;;;;;9.40;7.27;;;25.90;65.80;;;;;;5074321;28;20284;-68
2022/08/23 07:07:25;;;;;;;7.87;7.00;;;25.90;65.40;;;;;;5079045;28;20295;-68
2022/08/23 07:10:12;;;;;;;7.87;7.07;;;26.00;65.70;;;;;;5105487;28;20628;-68
2022/08/23 07:12:43;;;;;;;8.47;7.60;;;26.20;65.40;;;;;;5100332;28;20542;-68
2022/08/23 07:15:12;;;;;;;8.23;7.43;;;26.30;64.60;;;;;;5091784;28;20247;-68
2022/08/23 07:17:42;;;;;;;8.27;7.40;;;26.30;63.60;;;;;;5095786;28;20256;-68
2022/08/23 07:20:09;;;;;;;8.60;7.27;;;26.30;63.50;;;;;;5098391;28;20532;-68
2022/08/23 07:22:39;;;;;;;9.83;7.53;;;26.40;64.10;;;;;;5098772;28;20669;-68
2022/08/23 07:25:07;;;;;;;10.10;7.37;;;26.50;63.80;;;;;;5098269;28;20216;-68
2022/08/23 07:27:37;;;;;;;7.83;7.07;;;26.50;63.70;;;;;;5107673;28;20262;-68
2022/08/23 07:30:07;;;;;;;8.83;7.37;;;26.60;63.40;;;;;;5087791;28;20271;-68
2022/08/23 07:32:37;;;;;;;9.07;7.10;;;26.70;62.70;;;;;;5093797;28;20545;-68
2022/08/23 07:35:19;;;;;;;8.27;7.47;;;26.60;62.80;;;;;;5099526;28;20199;-68
2022/08/23 07:37:49;;;;;;;9.40;7.90;;;26.70;63.10;;;;;;5094502;28;20211;-68
2022/08/23 07:40:17;;;;;;;7.53;6.70;;;26.80;63.00;;;;;;5111420;28;20231;-68
2022/08/23 07:42:50;;;;;;;9.00;7.47;;;26.90;63.60;;;;;;5102561;28;20697;-68
2022/08/23 07:45:20;;;;;;;8.23;7.43;;;27.10;62.60;;;;;;5086579;28;20208;-68
2022/08/23 07:47:53;;;;;;;8.13;7.33;;;27.30;62.00;;;;;;5095025;28;20212;-69
2022/08/23 07:50:22;;;;;;;9.00;6.53;;;27.40;60.80;;;;;;5086056;28;20214;-68
2022/08/23 07:52:50;;;;;;;7.80;6.97;;;27.50;60.00;;;;;;5096257;28;20256;-68
2022/08/23 07:55:18;;;;;;;7.67;6.30;;;27.60;60.20;;;;;;5115466;28;20205;-68
2022/08/23 07:58:03;;;;;;;17.90;6.33;;;27.60;60.00;;;;;;5101091;28;20211;-68
2022/08/23 08:00:53;;;;;;;7.50;6.80;;;27.80;60.50;;;;;;5077023;28;20213;-68
2022/08/23 08:03:34;;;;;;;8.80;7.60;;;27.90;60.40;;;;;;5098697;28;20296;-68
2022/08/23 08:06:12;;;;;;;7.70;6.90;;;28.10;59.30;;;;;;5094696;28;20265;-68
2022/08/23 08:08:41;;;;;;;11.50;6.70;;;28.20;58.90;;;;;;5084585;28;20264;-68
2022/08/23 08:11:11;;;;;;;7.10;6.40;;;28.40;59.10;;;;;;5093016;28;20222;-68
2022/08/23 08:13:39;;;;;;;7.50;6.57;;;28.50;58.90;;;;;;5090259;28;20206;-68
2022/08/23 08:16:08;;;;;;;8.77;6.47;;;28.70;58.50;;;;;;5101746;27;20920;-68
2022/08/23 08:18:39;;;;;;;10.77;6.93;;;28.80;57.80;;;;;;5090090;28;20240;-68
2022/08/23 08:21:33;;;;;;;8.00;6.07;;;29.00;57.50;;;;;;5067628;28;20241;-68
2022/08/23 08:24:06;;;;;;;8.03;5.70;;;29.20;57.20;;;;;;5102537;28;20210;-68
2022/08/23 08:26:44;;;;;;;12.93;6.43;;;29.30;56.90;;;;;;5104604;28;20236;-68
2022/08/23 08:29:13;;;;;;;5.90;5.37;;;29.50;56.50;;;;;;5099661;28;20221;-68
2022/08/23 08:31:44;;;;;;;7.77;5.67;;;29.60;55.20;;;;;;5096661;28;20225;-68
2022/08/23 08:34:12;;;;;;;10.23;6.37;;;29.60;54.70;;;;;;5093355;28;20216;-68
2022/08/23 08:36:41;;;;;;;7.30;5.13;;;29.60;54.50;;;;;;5090580;28;20256;-68
2022/08/23 08:39:21;;;;;;;5.23;3.97;;;29.70;54.60;;;;;;5096941;28;20209;-68
2022/08/23 08:42:03;;;;;;;7.73;5.37;;;29.80;52.30;;;;;;5113130;27;20262;-68
2022/08/23 08:44:33;;;;;;;6.93;5.00;;;29.70;52.60;;;;;;5086653;28;20292;-68
2022/08/23 08:47:14;;;;;;;10.13;4.40;;;29.80;53.20;;;;;;5101570;28;20211;-68
2022/08/23 08:49:45;;;;;;;5.00;4.27;;;29.80;54.00;;;;;;5100591;28;20533;-68
2022/08/23 08:52:27;;;;;;;6.27;5.10;;;30.00;52.90;;;;;;5099767;28;20219;-68
2022/08/23 08:55:14;;;;;;;5.67;4.57;;;30.10;52.30;;;;;;5111652;27;20242;-68
2022/08/23 08:57:46;;;;;;;4.73;3.33;;;30.10;52.10;;;;;;5104269;28;20193;-68
2022/08/23 09:00:24;;;;;;;4.50;4.10;;;30.20;53.00;;;;;;5095532;28;20221;-68
2022/08/23 09:02:53;;;;;;;5.13;4.17;;;30.30;52.30;;;;;;5083677;28;20218;-69
2022/08/23 09:05:25;;;;;;;4.37;3.90;;;30.30;50.50;;;;;;5093411;28;20212;-68
2022/08/23 09:07:56;;;;;;;5.80;4.13;;;30.20;51.50;;;;;;5106368;28;20205;-68
2022/08/23 09:10:29;;;;;;;4.10;3.70;;;30.10;52.70;;;;;;5115851;27;20677;-68
2022/08/23 09:13:15;;;;;;;4.00;2.77;;;30.10;52.40;;;;;;5093898;28;20282;-68
2022/08/23 09:15:58;;;;;;;5.30;2.50;;;30.20;52.30;;;;;;5095683;28;20250;-68
2022/08/23 09:18:26;;;;;;;5.90;2.57;;;30.40;52.10;;;;;;5095232;28;20226;-67
2022/08/23 09:20:55;;;;;;;3.57;2.30;;;30.60;51.40;;;;;;5071023;28;20224;-67
2022/08/23 09:23:37;;;;;;;3.70;2.80;;;30.80;51.40;;;;;;5089205;28;20194;-67
2022/08/23 09:26:25;;;;;;;4.23;2.20;;;31.00;50.30;;;;;;5105460;28;20212;-68
2022/08/23 09:29:00;;;;;;;2.67;2.47;;;31.10;50.10;;;;;;5101036;28;20204;-68
2022/08/23 09:31:36;;;;;;;4.60;2.63;;;31.10;49.10;;;;;;5100362;28;20217;-68
2022/08/23 09:34:05;;;;;;;3.63;2.13;;;31.20;49.80;;;;;;5111027;27;20544;-68
2022/08/23 09:36:41;;;;;;;2.70;2.30;;;31.30;50.40;;;;;;5100966;28;20713;-68
2022/08/23 09:39:30;;;;;;;4.80;1.90;;;31.50;49.50;;;;;;5094846;28;20239;-68
2022/08/23 09:42:07;;;;;;;1.90;1.70;;;31.60;49.00;;;;;;5078613;28;20214;-68
2022/08/23 09:44:40;;;;;;;10.80;2.00;;;31.70;48.80;;;;;;5089405;28;20234;-68
2022/08/23 09:47:13;;;;;;;1.60;1.40;;;31.80;48.70;;;;;;5091326;28;20202;-68
2022/08/23 09:49:47;;;;;;;6.47;1.87;;;31.80;48.50;;;;;;5100667;28;20208;-68
2022/08/23 09:52:21;;;;;;;7.40;1.40;;;31.90;47.40;;;;;;5096181;28;20264;-68
2022/08/23 09:55:03;;;;;;;1.40;1.30;;;32.00;46.60;;;;;;5113766;27;20197;-68
2022/08/23 09:57:34;;;;;;;1.23;1.13;;;32.00;45.70;;;;;;5073858;28;20270;-67
2022/08/23 10:00:22;;;;;;;2.93;1.20;;;32.10;45.30;;;;;;5097358;28;20507;-67
2022/08/23 10:02:56;;;;;;;1.70;1.30;;;32.10;45.70;;;;;;5110209;27;20216;-67
2022/08/23 10:05:37;;;;;;;1.70;1.20;;;32.30;46.20;;;;;;5084481;28;20304;-67
2022/08/23 10:08:07;;;;;;;1.17;1.07;;;32.30;45.30;;;;;;5106553;27;20237;-67
2022/08/23 10:10:45;;;;;;;2.67;1.20;;;32.40;44.60;;;;;;5099285;28;20232;-67
2022/08/23 10:13:19;;;;;;;1.30;1.20;;;32.30;44.60;;;;;;5100723;28;20225;-67
2022/08/23 10:16:25;;;;;;;1.70;1.30;;;32.30;43.70;;;;;;5096763;28;20265;-67
2022/08/23 10:19:12;;;;;;;1.20;1.00;;;32.30;43.80;;;;;;5099146;28;20223;-67
2022/08/23 10:22:11;;;;;;;1.23;1.00;;;32.30;43.50;;;;;;5105601;28;20262;-68
2022/08/23 10:24:49;;;;;;;1.10;1.00;;;32.30;44.50;;;;;;5079138;28;20229;-68
2022/08/23 10:30:45;;;;;;;2.47;1.43;;;32.20;43.30;;;;;;5100104;28;20211;-67
2022/08/23 10:33:23;;;;;;;1.93;1.30;;;32.10;44.60;;;;;;5057357;28;20287;-67
2022/08/23 10:36:10;;;;;;;1.60;1.10;;;32.20;43.80;;;;;;5083416;28;20201;-67
2022/08/23 10:38:40;;;;;;;3.97;1.40;;;32.30;43.90;;;;;;5090682;28;20286;-67
2022/08/23 10:41:37;;;;;;;2.40;1.70;;;32.50;44.00;;;;;;5097313;28;20212;-68
2022/08/23 10:44:13;;;;;;;1.90;1.37;;;32.60;42.90;;;;;;5079009;28;20216;-68
2022/08/23 10:47:07;;;;;;;1.13;1.03;;;32.70;42.80;;;;;;5095181;28;20254;-68
2022/08/23 10:49:38;;;;;;;1.00;1.00;;;32.70;43.10;;;;;;5091230;28;20207;-68
2022/08/23 10:52:11;;;;;;;2.60;1.20;;;32.70;42.30;;;;;;5085475;28;20271;-68
2022/08/23 10:54:59;;;;;;;2.73;1.07;;;32.80;43.90;;;;;;5099455;28;20193;-68
2022/08/23 10:57:38;;;;;;;1.20;1.10;;;32.80;43.40;;;;;;5099628;28;20209;-67
2022/08/23 11:00:13;;;;;;;3.23;1.40;;;32.90;42.70;;;;;;5110973;28;20253;-68
2022/08/23 11:02:52;;;;;;;1.50;1.23;;;33.00;42.80;;;;;;5109988;28;20216;-67
2022/08/23 11:05:34;;;;;;;2.87;1.13;;;33.00;42.30;;;;;;5111423;28;20209;-67
2022/08/23 11:08:32;;;;;;;1.30;1.20;;;33.10;42.00;;;;;;5108926;28;20209;-67
2022/08/23 11:11:02;;;;;;;4.10;1.23;;;33.00;42.60;;;;;;5084705;28;20197;-67
2022/08/23 11:13:34;;;;;;;1.53;1.00;;;33.00;42.20;;;;;;5089600;28;20235;-67
2022/08/23 11:16:09;;;;;;;1.50;1.17;;;33.10;42.60;;;;;;5095002;28;20220;-67
2022/08/23 11:18:38;;;;;;;2.13;1.10;;;33.10;42.70;;;;;;5083866;28;20272;-67
2022/08/23 11:21:09;;;;;;;4.83;1.20;;;33.20;42.60;;;;;;5096065;28;20201;-67
2022/08/23 11:23:56;;;;;;;1.77;1.20;;;33.30;42.00;;;;;;5094291;28;20246;-67
2022/08/23 11:26:25;;;;;;;3.50;1.33;;;33.30;42.30;;;;;;5094959;28;20209;-67
2022/08/23 11:28:55;;;;;;;1.60;1.10;;;33.40;43.00;;;;;;5096119;28;20208;-67
2022/08/23 11:31:25;;;;;;;4.93;1.10;;;33.40;42.90;;;;;;5088178;28;20299;-67
2022/08/23 11:33:59;;;;;;;2.63;1.17;;;33.50;42.50;;;;;;5105988;27;20236;-67
2022/08/23 11:36:29;;;;;;;1.77;1.30;;;33.60;42.10;;;;;;5096982;28;20234;-67
2022/08/23 11:38:56;;;;;;;3.30;1.00;;;33.60;41.60;;;;;;5098542;28;20301;-67
2022/08/23 11:41:35;;;;;;;1.77;1.03;;;33.60;42.10;;;;;;5114310;27;20200;-67
2022/08/23 11:44:03;;;;;;;4.43;1.30;;;33.60;39.90;;;;;;5119557;27;20695;-67
2022/08/23 11:46:54;;;;;;;2.20;1.10;;;33.50;39.60;;;;;;5094066;28;20192;-67
2022/08/23 11:49:28;;;;;;;1.53;1.10;;;33.30;41.40;;;;;;5100502;28;20193;-67
2022/08/23 11:52:09;;;;;;;4.00;1.37;;;33.20;42.00;;;;;;5109296;28;20583;-68
2022/08/23 11:55:01;;;;;;;1.37;1.20;;;33.20;40.70;;;;;;5101903;28;20208;-67
2022/08/23 11:57:46;;;;;;;1.90;1.10;;;33.20;41.90;;;;;;5091666;28;20205;-68
2022/08/23 12:00:32;;;;;;;2.33;1.13;;;33.20;42.00;;;;;;5096859;28;20262;-68
2022/08/23 12:03:03;;;;;;;1.50;1.27;;;33.20;40.00;;;;;;5102751;28;20765;-67
2022/08/23 12:05:33;;;;;;;1.33;1.20;;;33.20;41.00;;;;;;5093884;28;20213;-67
2022/08/23 12:08:01;;;;;;;0.90;0.90;;;33.20;41.20;;;;;;5100758;28;20213;-67
2022/08/23 12:10:40;;;;;;;1.73;1.10;;;33.20;41.20;;;;;;5088296;28;20202;-67
2022/08/23 12:13:20;;;;;;;1.27;1.17;;;33.30;41.40;;;;;;5110733;27;20225;-67
2022/08/23 12:16:05;;;;;;;1.83;1.10;;;33.40;41.30;;;;;;5086465;28;20201;-67
2022/08/23 12:18:48;;;;;;;2.50;1.10;;;33.50;40.70;;;;;;5105625;27;20232;-67
2022/08/23 12:21:32;;;;;;;1.40;1.30;;;33.50;40.90;;;;;;5097358;27;20216;-67
2022/08/23 12:24:12;;;;;;;3.63;1.30;;;33.50;41.50;;;;;;5097734;27;20613;-68
2022/08/23 12:27:07;;;;;;;1.37;1.10;;;33.50;40.80;;;;;;5124245;27;20626;-68
2022/08/23 12:29:52;;;;;;;1.40;1.30;;;33.60;41.00;;;;;;5122298;27;20307;-68
2022/08/23 12:33:07;;;;;;;2.00;1.20;;;33.60;40.80;;;;;;5116368;27;20534;-67
2022/08/23 12:36:00;;;;;;;1.20;1.10;;;33.60;41.30;;;;;;5090981;27;20552;-67
2022/08/23 12:38:52;;;;;;;1.40;1.30;;;33.70;42.50;;;;;;5111502;27;20192;-67
2022/08/23 12:41:19;;;;;;;1.73;1.37;;;33.70;41.70;;;;;;5113063;27;20231;-68
2022/08/23 12:44:07;;;;;;;1.90;1.10;;;33.80;41.40;;;;;;5117046;27;20196;-68
2022/08/23 12:46:42;;;;;;;3.23;1.63;;;33.70;40.20;;;;;;5112802;27;20642;-68
2022/08/23 12:49:26;;;;;;;4.77;1.03;;;33.60;41.20;;;;;;5122363;27;20203;-68
2022/08/23 12:51:57;;;;;;;2.00;1.33;;;33.40;41.60;;;;;;5116719;27;20649;-67
2022/08/23 12:54:49;;;;;;;3.47;1.20;;;33.50;42.50;;;;;;5116679;27;20293;-67
2022/08/23 12:57:35;;;;;;;2.07;1.00;;;33.40;42.00;;;;;;5121332;27;20510;-67
2022/08/23 13:00:17;;;;;;;2.37;1.20;;;33.40;41.90;;;;;;5114329;27;20214;-67
2022/08/23 13:03:00;;;;;;;4.03;1.10;;;33.40;41.20;;;;;;5097415;27;20208;-67
2022/08/23 13:05:35;;;;;;;2.93;1.20;;;33.20;40.50;;;;;;5113671;27;20242;-67
2022/08/23 13:08:07;;;;;;;4.10;1.17;;;33.00;42.00;;;;;;5085580;27;20204;-67
2022/08/23 13:10:36;;;;;;;2.93;1.20;;;32.90;42.10;;;;;;5120982;27;20204;-67
2022/08/23 13:13:04;;;;;;;3.90;1.50;;;32.90;41.10;;;;;;5101787;27;20227;-67
2022/08/23 13:15:59;;;;;;;2.13;1.10;;;32.90;41.80;;;;;;5125578;27;20200;-67
2022/08/23 13:18:30;;;;;;;3.13;1.20;;;32.90;42.70;;;;;;5118541;27;20268;-67
2022/08/23 13:21:25;;;;;;;1.33;1.23;;;32.90;41.70;;;;;;5088037;27;20203;-67
2022/08/23 13:23:56;;;;;;;1.47;1.07;;;32.90;42.50;;;;;;5099887;27;20212;-67
2022/08/23 13:26:40;;;;;;;0.90;0.90;;;32.80;42.30;;;;;;5111619;27;20204;-68
2022/08/23 13:29:12;;;;;;;2.40;1.70;;;32.80;42.10;;;;;;5119777;27;20537;-67
2022/08/23 13:32:00;;;;;;;2.20;1.10;;;32.70;41.30;;;;;;5120792;27;20196;-67
2022/08/23 13:34:34;;;;;;;3.40;1.37;;;32.70;41.50;;;;;;5112789;27;20205;-68
2022/08/23 13:37:10;;;;;;;1.70;1.40;;;32.60;41.40;;;;;;5117262;27;20200;-67
2022/08/23 13:39:37;;;;;;;2.40;1.53;;;32.60;42.00;;;;;;5101387;27;20219;-67